sensor_id;sensor_type;location;lat;lon;timestamp;P1;durP1;ratioP1;P2;durP2;ratioP2
5965;SDS011;3009;43.224;27.976;2024-01-06T00:01:48;4.90;;;3.80;;
5965;SDS011;3009;43.224;27.976;2024-01-06T00:04:19;7.10;;;5.20;;
5965;SDS011;3009;43.224;27.976;2024-01-06T00:06:47;8.93;;;4.20;;
5965;SDS011;3009;43.224;27.976;2024-01-06T00:09:16;7.60;;;5.00;;
5965;SDS011;3009;43.224;27.976;2024-01-06T00:11:44;6.43;;;4.37;;
5965;SDS011;3009;43.224;27.976;2024-01-06T00:14:14;8.90;;;4.90;;
5965;SDS011;3009;43.224;27.976;2024-01-06T00:16:43;13.93;;;6.77;;
5965;SDS011;3009;43.224;27.976;2024-01-06T00:19:11;6.23;;;4.80;;
5965;SDS011;3009;43.224;27.976;2024-01-06T00:21:41;6.80;;;4.80;;
5965;SDS011;3009;43.224;27.976;2024-01-06T00:24:10;5.07;;;4.57;;
5965;SDS011;3009;43.224;27.976;2024-01-06T00:26:39;6.60;;;5.37;;
5965;SDS011;3009;43.224;27.976;2024-01-06T00:29:08;5.33;;;4.87;;
5965;SDS011;3009;43.224;27.976;2024-01-06T00:31:37;6.23;;;5.13;;
5965;SDS011;3009;43.224;27.976;2024-01-06T00:34:05;9.77;;;4.63;;
5965;SDS011;3009;43.224;27.976;2024-01-06T00:36:34;9.27;;;4.87;;
5965;SDS011;3009;43.224;27.976;2024-01-06T00:39:04;6.00;;;4.47;;
5965;SDS011;3009;43.224;27.976;2024-01-06T00:41:33;9.10;;;6.40;;
5965;SDS011;3009;43.224;27.976;2024-01-06T00:44:02;10.50;;;7.20;;
5965;SDS011;3009;43.224;27.976;2024-01-06T00:46:30;24.27;;;9.80;;
5965;SDS011;3009;43.224;27.976;2024-01-06T00:48:59;12.67;;;8.10;;
5965;SDS011;3009;43.224;27.976;2024-01-06T00:51:28;6.17;;;5.10;;
5965;SDS011;3009;43.224;27.976;2024-01-06T00:53:57;4.70;;;3.57;;
5965;SDS011;3009;43.224;27.976;2024-01-06T00:56:27;5.33;;;4.37;;
5965;SDS011;3009;43.224;27.976;2024-01-06T00:58:55;4.07;;;3.67;;
5965;SDS011;3009;43.224;27.976;2024-01-06T01:01:24;3.67;;;2.93;;
5965;SDS011;3009;43.224;27.976;2024-01-06T01:03:53;3.50;;;3.17;;
5965;SDS011;3009;43.224;27.976;2024-01-06T01:06:21;6.73;;;3.13;;
5965;SDS011;3009;43.224;27.976;2024-01-06T01:08:50;5.70;;;3.03;;
5965;SDS011;3009;43.224;27.976;2024-01-06T01:11:19;5.30;;;2.63;;
5965;SDS011;3009;43.224;27.976;2024-01-06T01:13:50;2.97;;;2.67;;
5965;SDS011;3009;43.224;27.976;2024-01-06T01:16:18;3.80;;;3.50;;
5965;SDS011;3009;43.224;27.976;2024-01-06T01:18:47;5.27;;;4.33;;
5965;SDS011;3009;43.224;27.976;2024-01-06T01:21:16;6.60;;;4.87;;
5965;SDS011;3009;43.224;27.976;2024-01-06T01:23:44;4.23;;;3.27;;
5965;SDS011;3009;43.224;27.976;2024-01-06T01:26:13;6.07;;;3.30;;
5965;SDS011;3009;43.224;27.976;2024-01-06T01:28:42;4.23;;;2.93;;
5965;SDS011;3009;43.224;27.976;2024-01-06T01:31:12;4.30;;;3.53;;
5965;SDS011;3009;43.224;27.976;2024-01-06T01:33:41;8.57;;;4.33;;
5965;SDS011;3009;43.224;27.976;2024-01-06T01:36:10;4.70;;;4.30;;
5965;SDS011;3009;43.224;27.976;2024-01-06T01:38:38;4.17;;;3.77;;
5965;SDS011;3009;43.224;27.976;2024-01-06T01:41:07;4.23;;;3.83;;
5965;SDS011;3009;43.224;27.976;2024-01-06T01:43:36;3.67;;;3.47;;
5965;SDS011;3009;43.224;27.976;2024-01-06T01:46:04;4.23;;;3.30;;
5965;SDS011;3009;43.224;27.976;2024-01-06T01:48:35;4.17;;;3.40;;
5965;SDS011;3009;43.224;27.976;2024-01-06T01:51:04;4.70;;;3.53;;
5965;SDS011;3009;43.224;27.976;2024-01-06T01:53:35;5.60;;;3.43;;
5965;SDS011;3009;43.224;27.976;2024-01-06T01:56:05;3.47;;;3.17;;
5965;SDS011;3009;43.224;27.976;2024-01-06T01:58:33;3.83;;;3.53;;
5965;SDS011;3009;43.224;27.976;2024-01-06T02:01:02;3.60;;;3.40;;
5965;SDS011;3009;43.224;27.976;2024-01-06T02:03:31;4.03;;;3.37;;
5965;SDS011;3009;43.224;27.976;2024-01-06T02:06:01;2.73;;;2.53;;
5965;SDS011;3009;43.224;27.976;2024-01-06T02:08:30;3.43;;;2.63;;
5965;SDS011;3009;43.224;27.976;2024-01-06T02:10:59;3.23;;;3.03;;
5965;SDS011;3009;43.224;27.976;2024-01-06T02:13:32;3.10;;;2.90;;
5965;SDS011;3009;43.224;27.976;2024-01-06T02:16:02;3.07;;;2.87;;
5965;SDS011;3009;43.224;27.976;2024-01-06T02:18:31;2.60;;;2.37;;
5965;SDS011;3009;43.224;27.976;2024-01-06T02:21:01;3.83;;;3.17;;
5965;SDS011;3009;43.224;27.976;2024-01-06T02:23:34;6.57;;;3.53;;
5965;SDS011;3009;43.224;27.976;2024-01-06T02:26:03;2.57;;;2.47;;
5965;SDS011;3009;43.224;27.976;2024-01-06T02:28:32;2.57;;;2.23;;
5965;SDS011;3009;43.224;27.976;2024-01-06T02:31:00;2.70;;;2.50;;
5965;SDS011;3009;43.224;27.976;2024-01-06T02:33:29;3.27;;;2.93;;
5965;SDS011;3009;43.224;27.976;2024-01-06T02:35:57;5.67;;;3.20;;
5965;SDS011;3009;43.224;27.976;2024-01-06T02:38:26;3.90;;;3.40;;
5965;SDS011;3009;43.224;27.976;2024-01-06T02:40:56;7.50;;;4.57;;
5965;SDS011;3009;43.224;27.976;2024-01-06T02:43:24;8.13;;;5.37;;
5965;SDS011;3009;43.224;27.976;2024-01-06T02:45:53;9.03;;;4.00;;
5965;SDS011;3009;43.224;27.976;2024-01-06T02:48:21;4.33;;;3.93;;
5965;SDS011;3009;43.224;27.976;2024-01-06T02:50:50;8.13;;;4.70;;
5965;SDS011;3009;43.224;27.976;2024-01-06T02:53:18;7.00;;;4.10;;
5965;SDS011;3009;43.224;27.976;2024-01-06T02:55:47;9.00;;;4.33;;
5965;SDS011;3009;43.224;27.976;2024-01-06T02:58:17;5.17;;;4.47;;
5965;SDS011;3009;43.224;27.976;2024-01-06T03:00:45;9.07;;;4.70;;
5965;SDS011;3009;43.224;27.976;2024-01-06T03:03:14;9.27;;;5.07;;
5965;SDS011;3009;43.224;27.976;2024-01-06T03:05:42;6.40;;;4.57;;
5965;SDS011;3009;43.224;27.976;2024-01-06T03:08:11;4.33;;;3.93;;
5965;SDS011;3009;43.224;27.976;2024-01-06T03:10:39;5.10;;;3.93;;
5965;SDS011;3009;43.224;27.976;2024-01-06T03:13:08;5.90;;;3.90;;
5965;SDS011;3009;43.224;27.976;2024-01-06T03:15:38;4.30;;;3.90;;
5965;SDS011;3009;43.224;27.976;2024-01-06T03:18:06;7.57;;;3.80;;
5965;SDS011;3009;43.224;27.976;2024-01-06T03:20:35;7.23;;;4.00;;
5965;SDS011;3009;43.224;27.976;2024-01-06T03:23:04;6.50;;;5.07;;
5965;SDS011;3009;43.224;27.976;2024-01-06T03:25:32;4.87;;;4.00;;
5965;SDS011;3009;43.224;27.976;2024-01-06T03:28:01;4.27;;;3.97;;
5965;SDS011;3009;43.224;27.976;2024-01-06T03:30:29;13.53;;;5.00;;
5965;SDS011;3009;43.224;27.976;2024-01-06T03:32:59;5.27;;;3.90;;
5965;SDS011;3009;43.224;27.976;2024-01-06T03:35:28;6.93;;;4.60;;
5965;SDS011;3009;43.224;27.976;2024-01-06T03:37:56;4.00;;;3.60;;
5965;SDS011;3009;43.224;27.976;2024-01-06T03:40:25;3.93;;;3.60;;
5965;SDS011;3009;43.224;27.976;2024-01-06T03:42:53;4.90;;;3.60;;
5965;SDS011;3009;43.224;27.976;2024-01-06T03:45:22;5.00;;;3.87;;
5965;SDS011;3009;43.224;27.976;2024-01-06T03:47:50;4.63;;;4.10;;
5965;SDS011;3009;43.224;27.976;2024-01-06T03:50:20;5.67;;;3.77;;
5965;SDS011;3009;43.224;27.976;2024-01-06T03:52:49;6.63;;;3.90;;
5965;SDS011;3009;43.224;27.976;2024-01-06T03:55:17;5.87;;;3.77;;
5965;SDS011;3009;43.224;27.976;2024-01-06T03:57:45;5.10;;;4.10;;
5965;SDS011;3009;43.224;27.976;2024-01-06T04:00:14;7.20;;;4.30;;
5965;SDS011;3009;43.224;27.976;2024-01-06T04:02:44;5.20;;;4.30;;
5965;SDS011;3009;43.224;27.976;2024-01-06T04:05:12;4.30;;;3.93;;
5965;SDS011;3009;43.224;27.976;2024-01-06T04:07:43;4.20;;;3.80;;
5965;SDS011;3009;43.224;27.976;2024-01-06T04:10:11;5.03;;;3.87;;
5965;SDS011;3009;43.224;27.976;2024-01-06T04:12:39;4.80;;;3.63;;
5965;SDS011;3009;43.224;27.976;2024-01-06T04:15:08;3.77;;;3.50;;
5965;SDS011;3009;43.224;27.976;2024-01-06T04:17:37;7.33;;;4.50;;
5965;SDS011;3009;43.224;27.976;2024-01-06T04:20:06;3.87;;;3.50;;
5965;SDS011;3009;43.224;27.976;2024-01-06T04:22:38;4.20;;;3.90;;
5965;SDS011;3009;43.224;27.976;2024-01-06T04:25:08;3.97;;;3.67;;
5965;SDS011;3009;43.224;27.976;2024-01-06T04:27:36;4.40;;;4.00;;
5965;SDS011;3009;43.224;27.976;2024-01-06T04:30:05;3.83;;;3.60;;
5965;SDS011;3009;43.224;27.976;2024-01-06T04:32:34;4.40;;;3.63;;
5965;SDS011;3009;43.224;27.976;2024-01-06T04:35:03;6.67;;;3.50;;
5965;SDS011;3009;43.224;27.976;2024-01-06T04:37:32;3.67;;;3.37;;
5965;SDS011;3009;43.224;27.976;2024-01-06T04:40:01;4.97;;;4.20;;
5965;SDS011;3009;43.224;27.976;2024-01-06T04:42:31;7.73;;;4.53;;
5965;SDS011;3009;43.224;27.976;2024-01-06T04:45:00;6.40;;;4.33;;
5965;SDS011;3009;43.224;27.976;2024-01-06T04:47:29;6.07;;;4.77;;
5965;SDS011;3009;43.224;27.976;2024-01-06T04:49:57;4.70;;;4.40;;
5965;SDS011;3009;43.224;27.976;2024-01-06T04:52:26;4.07;;;3.87;;
5965;SDS011;3009;43.224;27.976;2024-01-06T04:54:56;7.00;;;4.17;;
5965;SDS011;3009;43.224;27.976;2024-01-06T04:57:24;7.40;;;4.00;;
5965;SDS011;3009;43.224;27.976;2024-01-06T04:59:54;5.37;;;4.00;;
5965;SDS011;3009;43.224;27.976;2024-01-06T05:02:23;4.80;;;4.20;;
5965;SDS011;3009;43.224;27.976;2024-01-06T05:04:51;4.93;;;3.90;;
5965;SDS011;3009;43.224;27.976;2024-01-06T05:07:20;4.13;;;3.73;;
5965;SDS011;3009;43.224;27.976;2024-01-06T05:09:49;4.17;;;3.90;;
5965;SDS011;3009;43.224;27.976;2024-01-06T05:12:17;8.20;;;3.87;;
5965;SDS011;3009;43.224;27.976;2024-01-06T05:14:46;6.30;;;3.90;;
5965;SDS011;3009;43.224;27.976;2024-01-06T05:17:15;9.37;;;4.53;;
5965;SDS011;3009;43.224;27.976;2024-01-06T05:19:44;5.17;;;4.33;;
5965;SDS011;3009;43.224;27.976;2024-01-06T05:22:13;4.30;;;4.00;;
5965;SDS011;3009;43.224;27.976;2024-01-06T05:24:41;4.30;;;3.97;;
5965;SDS011;3009;43.224;27.976;2024-01-06T05:27:10;8.93;;;4.50;;
5965;SDS011;3009;43.224;27.976;2024-01-06T05:29:39;7.73;;;3.90;;
5965;SDS011;3009;43.224;27.976;2024-01-06T05:32:08;4.73;;;3.60;;
5965;SDS011;3009;43.224;27.976;2024-01-06T05:34:38;7.40;;;4.10;;
5965;SDS011;3009;43.224;27.976;2024-01-06T05:37:07;5.60;;;3.80;;
5965;SDS011;3009;43.224;27.976;2024-01-06T05:39:37;9.27;;;4.90;;
5965;SDS011;3009;43.224;27.976;2024-01-06T05:42:06;4.70;;;4.23;;
5965;SDS011;3009;43.224;27.976;2024-01-06T05:44:35;6.60;;;4.27;;
5965;SDS011;3009;43.224;27.976;2024-01-06T05:47:04;6.70;;;4.13;;
5965;SDS011;3009;43.224;27.976;2024-01-06T05:49:35;5.80;;;5.30;;
5965;SDS011;3009;43.224;27.976;2024-01-06T05:52:05;8.67;;;4.73;;
5965;SDS011;3009;43.224;27.976;2024-01-06T05:54:35;4.77;;;4.33;;
5965;SDS011;3009;43.224;27.976;2024-01-06T05:57:04;4.83;;;4.40;;
5965;SDS011;3009;43.224;27.976;2024-01-06T05:59:32;16.03;;;4.33;;
5965;SDS011;3009;43.224;27.976;2024-01-06T06:02:01;10.97;;;4.67;;
5965;SDS011;3009;43.224;27.976;2024-01-06T06:04:30;7.37;;;4.27;;
5965;SDS011;3009;43.224;27.976;2024-01-06T06:06:59;12.90;;;5.77;;
5965;SDS011;3009;43.224;27.976;2024-01-06T06:09:29;5.97;;;4.33;;
5965;SDS011;3009;43.224;27.976;2024-01-06T06:11:58;5.10;;;4.60;;
5965;SDS011;3009;43.224;27.976;2024-01-06T06:14:26;6.33;;;5.17;;
5965;SDS011;3009;43.224;27.976;2024-01-06T06:16:56;4.97;;;4.17;;
5965;SDS011;3009;43.224;27.976;2024-01-06T06:19:24;5.73;;;4.27;;
5965;SDS011;3009;43.224;27.976;2024-01-06T06:21:53;6.10;;;3.97;;
5965;SDS011;3009;43.224;27.976;2024-01-06T06:24:21;5.57;;;4.43;;
5965;SDS011;3009;43.224;27.976;2024-01-06T06:26:51;9.60;;;4.27;;
5965;SDS011;3009;43.224;27.976;2024-01-06T06:29:20;4.30;;;4.00;;
5965;SDS011;3009;43.224;27.976;2024-01-06T06:31:48;5.93;;;3.77;;
5965;SDS011;3009;43.224;27.976;2024-01-06T06:34:17;5.40;;;3.70;;
5965;SDS011;3009;43.224;27.976;2024-01-06T06:36:45;4.40;;;3.53;;
5965;SDS011;3009;43.224;27.976;2024-01-06T06:39:14;5.87;;;3.83;;
5965;SDS011;3009;43.224;27.976;2024-01-06T06:41:45;3.70;;;3.50;;
5965;SDS011;3009;43.224;27.976;2024-01-06T06:44:15;3.90;;;3.50;;
5965;SDS011;3009;43.224;27.976;2024-01-06T06:46:43;5.87;;;5.27;;
5965;SDS011;3009;43.224;27.976;2024-01-06T06:49:12;13.63;;;8.93;;
5965;SDS011;3009;43.224;27.976;2024-01-06T06:51:41;4.20;;;3.83;;
5965;SDS011;3009;43.224;27.976;2024-01-06T06:54:13;12.60;;;7.10;;
5965;SDS011;3009;43.224;27.976;2024-01-06T06:56:42;6.20;;;4.40;;
5965;SDS011;3009;43.224;27.976;2024-01-06T06:59:11;5.57;;;4.03;;
5965;SDS011;3009;43.224;27.976;2024-01-06T07:01:41;7.20;;;3.53;;
5965;SDS011;3009;43.224;27.976;2024-01-06T07:04:09;12.60;;;5.10;;
5965;SDS011;3009;43.224;27.976;2024-01-06T07:06:38;10.70;;;5.47;;
5965;SDS011;3009;43.224;27.976;2024-01-06T07:09:07;9.03;;;3.90;;
5965;SDS011;3009;43.224;27.976;2024-01-06T07:11:35;5.20;;;4.03;;
5965;SDS011;3009;43.224;27.976;2024-01-06T07:14:04;4.80;;;3.87;;
5965;SDS011;3009;43.224;27.976;2024-01-06T07:16:32;4.43;;;4.00;;
5965;SDS011;3009;43.224;27.976;2024-01-06T07:19:02;8.00;;;4.50;;
5965;SDS011;3009;43.224;27.976;2024-01-06T07:21:32;8.00;;;4.17;;
5965;SDS011;3009;43.224;27.976;2024-01-06T07:24:01;6.73;;;5.07;;
5965;SDS011;3009;43.224;27.976;2024-01-06T07:26:29;6.73;;;5.67;;
5965;SDS011;3009;43.224;27.976;2024-01-06T07:28:58;7.40;;;5.50;;
5965;SDS011;3009;43.224;27.976;2024-01-06T07:31:26;12.60;;;6.23;;
5965;SDS011;3009;43.224;27.976;2024-01-06T07:33:55;6.80;;;4.90;;
5965;SDS011;3009;43.224;27.976;2024-01-06T07:36:25;7.20;;;4.20;;
5965;SDS011;3009;43.224;27.976;2024-01-06T07:38:54;6.63;;;5.03;;
5965;SDS011;3009;43.224;27.976;2024-01-06T07:41:22;9.20;;;7.60;;
5965;SDS011;3009;43.224;27.976;2024-01-06T07:43:51;12.00;;;6.20;;
5965;SDS011;3009;43.224;27.976;2024-01-06T07:46:19;6.03;;;4.57;;
5965;SDS011;3009;43.224;27.976;2024-01-06T07:48:48;8.57;;;6.83;;
5965;SDS011;3009;43.224;27.976;2024-01-06T07:51:16;7.23;;;5.90;;
5965;SDS011;3009;43.224;27.976;2024-01-06T07:53:46;13.47;;;8.83;;
5965;SDS011;3009;43.224;27.976;2024-01-06T07:56:15;5.70;;;4.90;;
5965;SDS011;3009;43.224;27.976;2024-01-06T07:58:43;10.37;;;4.70;;
5965;SDS011;3009;43.224;27.976;2024-01-06T08:01:12;6.80;;;6.07;;
5965;SDS011;3009;43.224;27.976;2024-01-06T08:03:41;14.97;;;8.30;;
5965;SDS011;3009;43.224;27.976;2024-01-06T08:06:10;13.80;;;8.00;;
5965;SDS011;3009;43.224;27.976;2024-01-06T08:08:40;15.17;;;9.83;;
5965;SDS011;3009;43.224;27.976;2024-01-06T08:11:10;14.00;;;7.90;;
5965;SDS011;3009;43.224;27.976;2024-01-06T08:13:38;12.53;;;6.77;;
5965;SDS011;3009;43.224;27.976;2024-01-06T08:16:07;6.20;;;4.60;;
5965;SDS011;3009;43.224;27.976;2024-01-06T08:18:36;5.00;;;4.60;;
5965;SDS011;3009;43.224;27.976;2024-01-06T08:21:05;10.00;;;3.60;;
5965;SDS011;3009;43.224;27.976;2024-01-06T08:23:33;7.20;;;4.43;;
5965;SDS011;3009;43.224;27.976;2024-01-06T08:26:03;12.60;;;6.37;;
5965;SDS011;3009;43.224;27.976;2024-01-06T08:28:34;5.77;;;4.93;;
5965;SDS011;3009;43.224;27.976;2024-01-06T08:31:04;4.90;;;4.40;;
5965;SDS011;3009;43.224;27.976;2024-01-06T08:33:33;6.13;;;4.67;;
5965;SDS011;3009;43.224;27.976;2024-01-06T08:36:02;6.60;;;4.50;;
5965;SDS011;3009;43.224;27.976;2024-01-06T08:38:31;7.43;;;4.60;;
5965;SDS011;3009;43.224;27.976;2024-01-06T08:41:01;4.73;;;3.93;;
5965;SDS011;3009;43.224;27.976;2024-01-06T08:43:30;7.50;;;5.30;;
5965;SDS011;3009;43.224;27.976;2024-01-06T08:46:00;8.00;;;3.93;;
5965;SDS011;3009;43.224;27.976;2024-01-06T08:48:28;11.20;;;4.60;;
5965;SDS011;3009;43.224;27.976;2024-01-06T08:51:01;4.67;;;3.50;;
5965;SDS011;3009;43.224;27.976;2024-01-06T08:53:30;16.23;;;4.23;;
5965;SDS011;3009;43.224;27.976;2024-01-06T08:55:58;4.33;;;3.17;;
5965;SDS011;3009;43.224;27.976;2024-01-06T08:58:27;5.70;;;3.83;;
5965;SDS011;3009;43.224;27.976;2024-01-06T09:00:55;8.27;;;4.50;;
5965;SDS011;3009;43.224;27.976;2024-01-06T09:03:25;6.87;;;4.10;;
5965;SDS011;3009;43.224;27.976;2024-01-06T09:05:54;7.50;;;4.33;;
5965;SDS011;3009;43.224;27.976;2024-01-06T09:08:24;12.73;;;4.63;;
5965;SDS011;3009;43.224;27.976;2024-01-06T09:10:53;11.07;;;4.10;;
5965;SDS011;3009;43.224;27.976;2024-01-06T09:13:24;5.37;;;4.30;;
5965;SDS011;3009;43.224;27.976;2024-01-06T09:15:52;5.17;;;4.60;;
5965;SDS011;3009;43.224;27.976;2024-01-06T09:18:22;5.10;;;4.00;;
5965;SDS011;3009;43.224;27.976;2024-01-06T09:20:53;8.27;;;4.00;;
5965;SDS011;3009;43.224;27.976;2024-01-06T09:23:22;4.00;;;3.63;;
5965;SDS011;3009;43.224;27.976;2024-01-06T09:25:51;5.40;;;4.70;;
5965;SDS011;3009;43.224;27.976;2024-01-06T09:28:19;4.87;;;4.20;;
5965;SDS011;3009;43.224;27.976;2024-01-06T09:30:48;6.10;;;4.00;;
5965;SDS011;3009;43.224;27.976;2024-01-06T09:33:19;16.77;;;6.90;;
5965;SDS011;3009;43.224;27.976;2024-01-06T09:35:48;5.43;;;4.33;;
5965;SDS011;3009;43.224;27.976;2024-01-06T09:38:19;5.50;;;4.20;;
5965;SDS011;3009;43.224;27.976;2024-01-06T09:40:47;4.30;;;3.90;;
5965;SDS011;3009;43.224;27.976;2024-01-06T09:43:17;5.50;;;3.70;;
5965;SDS011;3009;43.224;27.976;2024-01-06T09:45:45;4.40;;;4.00;;
5965;SDS011;3009;43.224;27.976;2024-01-06T09:48:25;4.97;;;3.93;;
5965;SDS011;3009;43.224;27.976;2024-01-06T09:50:57;4.20;;;3.80;;
5965;SDS011;3009;43.224;27.976;2024-01-06T09:53:34;5.40;;;4.10;;
5965;SDS011;3009;43.224;27.976;2024-01-06T09:56:04;4.30;;;4.00;;
5965;SDS011;3009;43.224;27.976;2024-01-06T09:58:34;7.03;;;4.30;;
5965;SDS011;3009;43.224;27.976;2024-01-06T10:01:05;9.07;;;4.00;;
5965;SDS011;3009;43.224;27.976;2024-01-06T10:03:35;7.53;;;4.37;;
5965;SDS011;3009;43.224;27.976;2024-01-06T10:06:04;13.27;;;4.60;;
5965;SDS011;3009;43.224;27.976;2024-01-06T10:08:35;6.90;;;4.20;;
5965;SDS011;3009;43.224;27.976;2024-01-06T10:11:07;11.37;;;4.63;;
5965;SDS011;3009;43.224;27.976;2024-01-06T10:13:36;9.30;;;5.00;;
5965;SDS011;3009;43.224;27.976;2024-01-06T10:16:05;6.73;;;3.70;;
5965;SDS011;3009;43.224;27.976;2024-01-06T10:18:36;4.03;;;3.63;;
5965;SDS011;3009;43.224;27.976;2024-01-06T10:21:06;3.87;;;3.60;;
5965;SDS011;3009;43.224;27.976;2024-01-06T10:23:36;16.27;;;4.27;;
5965;SDS011;3009;43.224;27.976;2024-01-06T10:26:05;11.43;;;5.20;;
5965;SDS011;3009;43.224;27.976;2024-01-06T10:28:34;6.97;;;4.20;;
5965;SDS011;3009;43.224;27.976;2024-01-06T10:31:03;4.63;;;4.23;;
5965;SDS011;3009;43.224;27.976;2024-01-06T10:33:32;8.23;;;4.70;;
5965;SDS011;3009;43.224;27.976;2024-01-06T10:36:01;13.03;;;4.77;;
5965;SDS011;3009;43.224;27.976;2024-01-06T10:38:29;5.00;;;4.50;;
5965;SDS011;3009;43.224;27.976;2024-01-06T10:40:59;7.53;;;4.37;;
5965;SDS011;3009;43.224;27.976;2024-01-06T10:43:34;6.30;;;4.57;;
5965;SDS011;3009;43.224;27.976;2024-01-06T10:46:07;5.70;;;4.70;;
5965;SDS011;3009;43.224;27.976;2024-01-06T10:48:38;10.40;;;4.60;;
5965;SDS011;3009;43.224;27.976;2024-01-06T10:51:10;7.73;;;4.10;;
5965;SDS011;3009;43.224;27.976;2024-01-06T10:53:41;9.13;;;4.90;;
5965;SDS011;3009;43.224;27.976;2024-01-06T10:56:12;15.10;;;5.00;;
5965;SDS011;3009;43.224;27.976;2024-01-06T10:58:40;8.10;;;4.60;;
5965;SDS011;3009;43.224;27.976;2024-01-06T11:01:18;6.63;;;4.80;;
5965;SDS011;3009;43.224;27.976;2024-01-06T11:03:53;9.97;;;4.60;;
5965;SDS011;3009;43.224;27.976;2024-01-06T11:06:23;6.53;;;4.63;;
5965;SDS011;3009;43.224;27.976;2024-01-06T11:11:40;7.43;;;4.53;;
5965;SDS011;3009;43.224;27.976;2024-01-06T11:14:19;6.43;;;4.20;;
5965;SDS011;3009;43.224;27.976;2024-01-06T11:16:49;4.37;;;3.97;;
5965;SDS011;3009;43.224;27.976;2024-01-06T11:22:18;8.63;;;4.70;;
5965;SDS011;3009;43.224;27.976;2024-01-06T11:24:49;5.73;;;3.83;;
5965;SDS011;3009;43.224;27.976;2024-01-06T11:27:20;8.33;;;4.20;;
5965;SDS011;3009;43.224;27.976;2024-01-06T11:29:56;9.60;;;4.50;;
5965;SDS011;3009;43.224;27.976;2024-01-06T11:32:28;6.00;;;3.93;;
5965;SDS011;3009;43.224;27.976;2024-01-06T11:35:04;4.33;;;3.73;;
5965;SDS011;3009;43.224;27.976;2024-01-06T11:37:36;4.50;;;4.10;;
5965;SDS011;3009;43.224;27.976;2024-01-06T11:40:22;4.90;;;4.50;;
5965;SDS011;3009;43.224;27.976;2024-01-06T11:43:00;13.10;;;4.50;;
5965;SDS011;3009;43.224;27.976;2024-01-06T11:45:32;8.53;;;4.13;;
5965;SDS011;3009;43.224;27.976;2024-01-06T11:48:03;7.13;;;4.80;;
5965;SDS011;3009;43.224;27.976;2024-01-06T11:50:35;9.53;;;5.33;;
5965;SDS011;3009;43.224;27.976;2024-01-06T11:53:05;5.40;;;4.37;;
5965;SDS011;3009;43.224;27.976;2024-01-06T11:55:38;10.73;;;5.30;;
5965;SDS011;3009;43.224;27.976;2024-01-06T11:58:08;14.30;;;5.13;;
5965;SDS011;3009;43.224;27.976;2024-01-06T12:00:37;11.37;;;5.53;;
5965;SDS011;3009;43.224;27.976;2024-01-06T12:03:07;7.53;;;4.70;;
5965;SDS011;3009;43.224;27.976;2024-01-06T12:05:36;8.90;;;5.37;;
5965;SDS011;3009;43.224;27.976;2024-01-06T12:08:05;8.80;;;4.80;;
5965;SDS011;3009;43.224;27.976;2024-01-06T12:10:35;6.93;;;5.43;;
5965;SDS011;3009;43.224;27.976;2024-01-06T12:13:04;7.03;;;5.30;;
5965;SDS011;3009;43.224;27.976;2024-01-06T12:15:39;6.27;;;4.80;;
5965;SDS011;3009;43.224;27.976;2024-01-06T12:18:08;7.77;;;4.73;;
5965;SDS011;3009;43.224;27.976;2024-01-06T12:20:37;14.23;;;5.50;;
5965;SDS011;3009;43.224;27.976;2024-01-06T12:23:05;5.23;;;4.47;;
5965;SDS011;3009;43.224;27.976;2024-01-06T12:25:34;8.53;;;4.67;;
5965;SDS011;3009;43.224;27.976;2024-01-06T12:28:06;7.00;;;4.80;;
5965;SDS011;3009;43.224;27.976;2024-01-06T12:30:38;9.10;;;5.47;;
5965;SDS011;3009;43.224;27.976;2024-01-06T12:33:08;6.80;;;4.70;;
5965;SDS011;3009;43.224;27.976;2024-01-06T12:35:37;9.80;;;5.27;;
5965;SDS011;3009;43.224;27.976;2024-01-06T12:38:08;11.97;;;5.10;;
5965;SDS011;3009;43.224;27.976;2024-01-06T12:40:37;11.50;;;5.93;;
5965;SDS011;3009;43.224;27.976;2024-01-06T12:43:08;9.07;;;5.30;;
5965;SDS011;3009;43.224;27.976;2024-01-06T12:45:36;10.83;;;5.20;;
5965;SDS011;3009;43.224;27.976;2024-01-06T12:48:07;9.40;;;5.10;;
5965;SDS011;3009;43.224;27.976;2024-01-06T12:50:35;7.20;;;5.27;;
5965;SDS011;3009;43.224;27.976;2024-01-06T12:53:04;7.33;;;4.93;;
5965;SDS011;3009;43.224;27.976;2024-01-06T12:55:32;10.13;;;5.50;;
5965;SDS011;3009;43.224;27.976;2024-01-06T12:58:01;8.90;;;5.40;;
5965;SDS011;3009;43.224;27.976;2024-01-06T13:00:30;9.27;;;4.43;;
5965;SDS011;3009;43.224;27.976;2024-01-06T13:03:02;10.57;;;4.70;;
5965;SDS011;3009;43.224;27.976;2024-01-06T13:05:33;11.60;;;5.60;;
5965;SDS011;3009;43.224;27.976;2024-01-06T13:08:03;5.50;;;4.73;;
5965;SDS011;3009;43.224;27.976;2024-01-06T13:10:32;7.37;;;4.80;;
5965;SDS011;3009;43.224;27.976;2024-01-06T13:13:02;8.20;;;5.17;;
5965;SDS011;3009;43.224;27.976;2024-01-06T13:15:32;6.77;;;4.97;;
5965;SDS011;3009;43.224;27.976;2024-01-06T13:18:01;11.40;;;6.83;;
5965;SDS011;3009;43.224;27.976;2024-01-06T13:20:30;6.70;;;5.50;;
5965;SDS011;3009;43.224;27.976;2024-01-06T13:23:00;11.60;;;5.60;;
5965;SDS011;3009;43.224;27.976;2024-01-06T13:25:33;9.50;;;6.80;;
5965;SDS011;3009;43.224;27.976;2024-01-06T13:28:02;6.73;;;5.10;;
5965;SDS011;3009;43.224;27.976;2024-01-06T13:30:32;7.83;;;5.67;;
5965;SDS011;3009;43.224;27.976;2024-01-06T13:33:01;8.43;;;5.60;;
5965;SDS011;3009;43.224;27.976;2024-01-06T13:35:30;11.10;;;5.53;;
5965;SDS011;3009;43.224;27.976;2024-01-06T13:38:00;10.83;;;5.93;;
5965;SDS011;3009;43.224;27.976;2024-01-06T13:40:30;8.57;;;5.43;;
5965;SDS011;3009;43.224;27.976;2024-01-06T13:42:59;6.33;;;4.83;;
5965;SDS011;3009;43.224;27.976;2024-01-06T13:45:31;9.93;;;5.53;;
5965;SDS011;3009;43.224;27.976;2024-01-06T13:48:00;12.70;;;5.83;;
5965;SDS011;3009;43.224;27.976;2024-01-06T13:50:35;13.43;;;6.67;;
5965;SDS011;3009;43.224;27.976;2024-01-06T13:53:05;9.80;;;6.13;;
5965;SDS011;3009;43.224;27.976;2024-01-06T13:55:35;7.50;;;6.00;;
5965;SDS011;3009;43.224;27.976;2024-01-06T13:58:03;7.03;;;5.67;;
5965;SDS011;3009;43.224;27.976;2024-01-06T14:00:32;10.47;;;5.90;;
5965;SDS011;3009;43.224;27.976;2024-01-06T14:03:01;10.17;;;5.50;;
5965;SDS011;3009;43.224;27.976;2024-01-06T14:05:29;9.00;;;6.13;;
5965;SDS011;3009;43.224;27.976;2024-01-06T14:07:59;6.57;;;5.30;;
5965;SDS011;3009;43.224;27.976;2024-01-06T14:10:29;11.43;;;5.10;;
5965;SDS011;3009;43.224;27.976;2024-01-06T14:12:58;6.13;;;4.73;;
5965;SDS011;3009;43.224;27.976;2024-01-06T14:15:27;10.00;;;6.00;;
5965;SDS011;3009;43.224;27.976;2024-01-06T14:17:57;13.70;;;5.30;;
5965;SDS011;3009;43.224;27.976;2024-01-06T14:20:26;12.47;;;5.30;;
5965;SDS011;3009;43.224;27.976;2024-01-06T14:22:55;7.73;;;5.20;;
5965;SDS011;3009;43.224;27.976;2024-01-06T14:25:25;10.60;;;5.97;;
5965;SDS011;3009;43.224;27.976;2024-01-06T14:27:55;18.83;;;5.47;;
5965;SDS011;3009;43.224;27.976;2024-01-06T14:30:24;14.77;;;5.30;;
5965;SDS011;3009;43.224;27.976;2024-01-06T14:32:53;10.27;;;5.10;;
5965;SDS011;3009;43.224;27.976;2024-01-06T14:35:21;16.20;;;5.50;;
5965;SDS011;3009;43.224;27.976;2024-01-06T14:37:50;6.80;;;5.30;;
5965;SDS011;3009;43.224;27.976;2024-01-06T14:40:20;12.93;;;5.90;;
5965;SDS011;3009;43.224;27.976;2024-01-06T14:42:49;17.43;;;5.80;;
5965;SDS011;3009;43.224;27.976;2024-01-06T14:45:19;11.53;;;5.87;;
5965;SDS011;3009;43.224;27.976;2024-01-06T14:47:48;11.60;;;5.50;;
5965;SDS011;3009;43.224;27.976;2024-01-06T14:50:18;11.00;;;5.63;;
5965;SDS011;3009;43.224;27.976;2024-01-06T14:52:47;12.93;;;6.03;;
5965;SDS011;3009;43.224;27.976;2024-01-06T14:55:15;12.63;;;6.00;;
5965;SDS011;3009;43.224;27.976;2024-01-06T14:57:44;14.63;;;6.70;;
5965;SDS011;3009;43.224;27.976;2024-01-06T15:00:13;20.60;;;7.20;;
5965;SDS011;3009;43.224;27.976;2024-01-06T15:02:44;9.73;;;6.40;;
5965;SDS011;3009;43.224;27.976;2024-01-06T15:05:13;17.33;;;6.87;;
5965;SDS011;3009;43.224;27.976;2024-01-06T15:07:42;12.43;;;6.00;;
5965;SDS011;3009;43.224;27.976;2024-01-06T15:10:12;12.03;;;7.37;;
5965;SDS011;3009;43.224;27.976;2024-01-06T15:12:42;9.90;;;7.00;;
5965;SDS011;3009;43.224;27.976;2024-01-06T15:15:10;13.03;;;6.90;;
5965;SDS011;3009;43.224;27.976;2024-01-06T15:17:39;16.90;;;8.60;;